Time;durP1;ratioP1;P1;durP2;ratioP2;P2;SDS_P1;SDS_P2;PMS_P1;PMS_P2;Temp;Humidity;BMP_temperature;BMP_pressure;BME280_temperature;BME280_humidity;BME280_pressure;Samples;Min_cycle;Max_cycle;Signal;HPM_P1;HPM_P2
2021/11/06 00:00:49;;;;;;;19.42;11.38;;;6.30;99.90;;;7.38;100.00;101708.75;5001371;28;20023;-81
2021/11/06 00:03:15;;;;;;;18.77;10.40;;;6.40;99.90;;;7.41;100.00;101707.31;5000139;28;20068;-84
2021/11/06 00:05:41;;;;;;;22.38;10.43;;;6.40;99.90;;;7.46;100.00;101714.72;5000061;28;20091;-81
2021/11/06 00:08:07;;;;;;;18.38;10.68;;;6.40;99.90;;;7.43;100.00;101711.44;5000388;28;20023;-82
2021/11/06 00:10:33;;;;;;;18.98;10.10;;;6.40;99.90;;;7.39;100.00;101713.19;5001259;28;20031;-81
2021/11/06 00:12:59;;;;;;;17.50;9.73;;;6.30;99.90;;;7.36;100.00;101705.47;5000079;28;20023;-81
2021/11/06 00:15:25;;;;;;;18.20;10.05;;;6.30;99.90;;;7.27;100.00;101709.28;5000630;28;20023;-82
2021/11/06 00:17:52;;;;;;;19.50;9.73;;;6.20;99.90;;;7.24;100.00;101707.13;4997302;28;20055;-85
2021/11/06 00:20:18;;;;;;;19.42;10.65;;;6.20;99.90;;;7.20;100.00;101706.09;4999121;28;20050;-81
2021/11/06 00:22:44;;;;;;;19.33;10.93;;;6.20;99.90;;;7.22;100.00;101710.25;5000130;28;20138;-83
2021/11/06 00:25:12;;;;;;;20.17;12.10;;;6.20;99.90;;;7.26;100.00;101713.19;5014947;28;20054;-84
2021/11/06 00:27:41;;;;;;;18.40;10.52;;;6.30;99.90;;;7.24;100.00;101721.03;4997768;28;20067;-82
2021/11/06 00:30:10;;;;;;;20.15;10.80;;;6.30;99.90;;;7.26;100.00;101710.41;5000060;28;20030;-82
2021/11/06 00:32:39;;;;;;;23.23;11.80;;;6.30;99.90;;;7.35;100.00;101708.56;5000511;28;20031;-80
2021/11/06 00:35:09;;;;;;;19.52;12.23;;;6.40;99.90;;;7.39;100.00;101704.00;4998208;28;20081;-81
2021/11/06 00:37:41;;;;;;;24.45;12.27;;;6.40;99.90;;;7.46;100.00;101715.53;5014215;28;20070;-82
2021/11/06 00:40:12;;;;;;;22.83;11.55;;;6.40;99.90;;;7.48;100.00;101713.25;4998976;28;20042;-82
2021/11/06 00:42:39;;;;;;;22.48;11.73;;;6.40;99.90;;;7.50;100.00;101713.78;5000700;28;20050;-81
2021/11/06 00:45:09;;;;;;;25.30;11.43;;;6.40;99.90;;;7.50;100.00;101713.78;4999611;28;20031;-81
2021/11/06 00:47:38;;;;;;;21.67;11.23;;;6.50;99.90;;;7.35;100.00;101712.16;5016152;28;20023;-80
2021/11/06 00:50:08;;;;;;;19.50;11.20;;;6.40;99.90;;;7.38;100.00;101708.75;5014314;28;20057;-84
2021/11/06 00:52:35;;;;;;;21.10;11.02;;;6.40;99.90;;;7.33;100.00;101706.09;4979418;28;20035;-86
2021/11/06 00:55:03;;;;;;;26.30;11.23;;;6.30;99.90;;;7.38;100.00;101710.72;4994071;28;20026;-85
2021/11/06 00:57:29;;;;;;;24.80;11.35;;;6.40;99.90;;;7.40;100.00;101714.00;4978054;28;20058;-86
2021/11/06 00:59:55;;;;;;;19.38;10.75;;;6.40;99.90;;;7.38;100.00;101710.72;4977933;28;20446;-85
2021/11/06 01:02:21;;;;;;;22.35;10.75;;;6.40;99.90;;;7.37;100.00;101715.47;4977614;28;20057;-87
2021/11/06 01:04:47;;;;;;;24.27;11.30;;;6.40;99.90;;;7.39;100.00;101713.19;4976973;28;20475;-87
2021/11/06 01:07:14;;;;;;;20.38;10.70;;;6.40;99.90;;;7.40;100.00;101727.91;4993254;28;20082;-84
2021/11/06 01:09:40;;;;;;;21.08;10.80;;;6.40;99.90;;;7.41;100.00;101719.28;4978345;28;20027;-86
2021/11/06 01:12:06;;;;;;;18.50;10.07;;;6.30;99.90;;;7.38;100.00;101714.31;4976672;28;20027;-84
2021/11/06 01:14:32;;;;;;;20.15;10.38;;;6.30;99.90;;;7.30;100.00;101712.28;4977707;28;20031;-82
2021/11/06 01:16:58;;;;;;;23.00;11.50;;;6.30;99.90;;;7.24;100.00;101710.75;4976956;28;20035;-83
2021/11/06 01:19:24;;;;;;;20.48;11.07;;;6.30;99.90;;;7.24;100.00;101713.50;4977682;28;20033;-85
2021/11/06 01:21:50;;;;;;;23.55;10.55;;;6.20;99.90;;;7.27;100.00;101717.63;4976255;28;20026;-84
2021/11/06 01:24:16;;;;;;;22.83;10.65;;;6.30;99.90;;;7.30;100.00;101715.06;4998700;28;20031;-83
2021/11/06 01:26:42;;;;;;;21.55;10.65;;;6.30;99.90;;;7.31;100.00;101716.72;4977787;28;20069;-86
2021/11/06 01:29:08;;;;;;;24.08;12.10;;;6.30;99.90;;;7.35;100.00;101720.50;4979668;28;20294;-89
2021/11/06 01:31:34;;;;;;;18.70;10.15;;;6.40;99.90;;;7.40;100.00;101727.91;5004716;28;20042;-85
2021/11/06 01:34:00;;;;;;;17.70;9.98;;;6.40;99.90;;;7.39;100.00;101729.84;4998011;28;20035;-81
2021/11/06 01:36:26;;;;;;;18.65;10.25;;;6.30;99.90;;;7.36;100.00;101732.44;4996738;28;20042;-88
2021/11/06 01:38:52;;;;;;;17.48;9.45;;;6.30;99.90;;;7.32;100.00;101729.44;4988953;28;20050;-85
2021/11/06 01:41:18;;;;;;;16.50;9.40;;;6.30;99.90;;;7.29;100.00;101732.03;4975992;28;20483;-85
2021/11/06 01:43:45;;;;;;;17.67;9.75;;;6.20;99.90;;;7.16;100.00;101736.47;4976407;28;20062;-86
2021/11/06 01:46:11;;;;;;;21.73;10.07;;;6.20;99.90;;;7.16;100.00;101736.47;5009143;28;20050;-85
2021/11/06 01:48:37;;;;;;;24.23;11.07;;;6.20;99.90;;;7.19;100.00;101724.72;4983271;28;20027;-83
2021/11/06 01:51:05;;;;;;;16.65;10.50;;;6.20;99.90;;;7.14;100.00;101727.63;4997745;28;20025;-82
2021/11/06 01:53:32;;;;;;;18.52;9.85;;;6.20;99.90;;;7.09;100.00;101726.91;5014436;28;20023;-82
2021/11/06 01:56:00;;;;;;;22.25;12.75;;;6.10;99.90;;;7.11;100.00;101730.19;4997502;28;20035;-82
2021/11/06 01:58:30;;;;;;;23.90;13.07;;;6.20;99.90;;;7.11;100.00;101733.78;4988998;28;20042;-86
2021/11/06 02:00:59;;;;;;;22.38;11.50;;;6.20;99.90;;;7.21;100.00;101732.75;4976915;28;20387;-86
2021/11/06 02:03:26;;;;;;;21.77;12.38;;;6.20;99.90;;;7.15;100.00;101734.84;4992862;28;20137;-86
2021/11/06 02:05:52;;;;;;;27.50;13.07;;;6.20;99.90;;;7.09;100.00;101722.19;4976826;28;20041;-83
2021/11/06 02:08:18;;;;;;;25.85;13.20;;;6.20;99.90;;;7.14;100.00;101727.63;4977826;28;20026;-86
2021/11/06 02:10:47;;;;;;;24.75;13.35;;;6.20;99.90;;;7.13;100.00;101725.13;4976207;28;20027;-84
2021/11/06 02:13:13;;;;;;;26.00;14.88;;;6.10;99.90;;;7.13;100.00;101723.19;4977726;28;20530;-83
2021/11/06 02:15:39;;;;;;;28.77;15.57;;;6.20;99.90;;;7.11;100.00;101719.06;4985665;28;20380;-85
2021/11/06 02:18:06;;;;;;;23.65;13.68;;;6.10;99.90;;;7.10;100.00;101718.25;4985056;28;20033;-86
2021/11/06 02:20:34;;;;;;;28.23;14.65;;;6.10;99.90;;;7.05;100.00;101718.38;4980767;28;20031;-85
2021/11/06 02:23:00;;;;;;;24.48;14.77;;;6.10;99.90;;;6.97;100.00;101716.28;4978725;28;20499;-85
2021/11/06 02:25:45;;;;;;;25.42;15.40;;;6.00;99.90;;;7.00;100.00;101712.09;4978803;28;20106;-86
2021/11/06 02:28:11;;;;;;;30.63;16.70;;;6.00;99.90;;;6.94;100.00;101714.13;4977568;28;20127;-86
2021/11/06 02:30:37;;;;;;;28.83;16.55;;;5.90;99.90;;;6.88;100.00;101712.59;4977821;28;20037;-86
2021/11/06 02:33:04;;;;;;;30.67;16.40;;;5.90;99.90;;;6.92;100.00;101716.41;4978087;28;20035;-84
2021/11/06 02:35:30;;;;;;;34.58;17.75;;;6.00;99.90;;;6.90;100.00;101715.91;4977729;28;20402;-86
2021/11/06 02:37:56;;;;;;;36.03;18.63;;;6.00;99.90;;;6.92;100.00;101716.41;4977187;28;20058;-84
2021/11/06 02:40:24;;;;;;;39.15;18.00;;;5.90;99.90;;;6.97;100.00;101707.16;4993869;28;20086;-86
2021/11/06 02:42:50;;;;;;;30.73;18.20;;;6.00;99.90;;;6.95;100.00;101713.00;4980541;28;20031;-85
2021/11/06 02:45:15;;;;;;;32.25;17.60;;;6.00;99.90;;;6.96;100.00;101705.50;5002313;28;20040;-83
2021/11/06 02:47:41;;;;;;;33.53;18.38;;;6.00;99.90;;;7.01;100.00;101722.06;5002624;28;20030;-86
2021/11/06 02:50:08;;;;;;;29.08;16.75;;;6.00;99.90;;;6.99;100.00;101716.81;4981075;28;20524;-86
2021/11/06 02:52:35;;;;;;;38.65;19.27;;;6.00;99.90;;;6.97;100.00;101705.19;4977656;28;20030;-87
2021/11/06 02:55:01;;;;;;;31.20;17.25;;;5.90;99.90;;;6.91;100.00;101706.41;4975917;28;20034;-87
2021/11/06 02:57:27;;;;;;;38.45;18.17;;;6.00;99.90;;;6.94;100.00;101710.53;4992217;28;20058;-86
2021/11/06 02:59:54;;;;;;;37.28;17.55;;;5.90;99.90;;;6.92;100.00;101707.25;4976143;28;20039;-84
2021/11/06 03:02:20;;;;;;;37.05;16.98;;;6.00;99.90;;;6.95;100.00;101706.63;4976874;28;20435;-87
2021/11/06 03:04:46;;;;;;;39.22;18.23;;;6.00;99.90;;;6.90;100.00;101702.81;4976462;28;20117;-86
2021/11/06 03:07:12;;;;;;;35.65;15.65;;;6.00;99.90;;;6.99;100.00;101705.72;4976641;28;20066;-87
2021/11/06 03:09:39;;;;;;;35.85;16.45;;;6.00;99.90;;;6.97;100.00;101705.19;4978097;28;20034;-87
2021/11/06 03:12:15;;;;;;;34.65;15.50;;;6.00;99.90;;;6.99;100.00;101702.09;4977014;28;20031;-86
2021/11/06 03:14:43;;;;;;;;;;;6.00;99.90;;;7.00;100.00;101696.22;4977254;28;20061;-87
2021/11/06 03:17:10;;;;;;;28.80;14.50;;;6.00;99.90;;;6.90;100.00;101702.81;4976389;28;19937;-88
2021/11/06 03:19:37;;;;;;;33.45;14.00;;;6.00;99.90;;;6.96;100.00;101700.78;4976015;28;20455;-88
2021/11/06 03:22:05;;;;;;;31.92;14.43;;;6.00;99.90;;;6.96;100.00;101705.50;4991944;28;20031;-87
2021/11/06 03:24:31;;;;;;;29.02;14.18;;;6.00;99.90;;;6.98;100.00;101703.22;4976205;28;20027;-87
2021/11/06 03:26:57;;;;;;;37.42;14.07;;;6.00;99.90;;;6.93;100.00;101706.94;4978083;28;20027;-86
2021/11/06 03:29:23;;;;;;;31.35;13.43;;;5.90;99.90;;;6.78;100.00;101699.72;4976573;28;20034;-87
2021/11/06 03:31:49;;;;;;;30.23;12.43;;;5.90;99.90;;;6.86;100.00;101701.81;4975911;28;20031;-85
2021/11/06 03:34:16;;;;;;;29.73;13.95;;;5.90;99.90;;;6.86;100.00;101706.53;4992542;28;20122;-86
2021/11/06 03:36:42;;;;;;;31.42;12.88;;;5.90;99.90;;;6.86;100.00;101707.34;4976287;28;20027;-87
2021/11/06 03:39:08;;;;;;;28.88;13.55;;;5.90;99.90;;;6.79;100.00;101717.22;4976429;28;20229;-87
2021/11/06 03:41:34;;;;;;;31.63;12.57;;;5.80;99.90;;;6.75;100.00;101705.06;4976239;28;20123;-86
2021/11/06 03:44:02;;;;;;;30.50;12.68;;;5.80;99.90;;;6.67;100.00;101703.00;4976266;28;20031;-85
2021/11/06 03:46:28;;;;;;;30.55;13.10;;;5.80;99.90;;;6.59;100.00;101709.25;4993247;28;20106;-85
2021/11/06 03:48:54;;;;;;;24.45;12.25;;;5.80;99.90;;;6.66;100.00;101706.91;4994029;28;20467;-88
2021/11/06 03:51:21;;;;;;;36.55;13.15;;;5.80;99.90;;;6.70;100.00;101714.34;4978152;28;20106;-84
2021/11/06 03:53:47;;;;;;;20.95;11.18;;;5.70;99.90;;;6.64;100.00;101715.56;4977899;28;20027;-86
2021/11/06 03:56:13;;;;;;;31.90;11.52;;;5.70;99.90;;;6.65;100.00;101716.34;4977154;28;20360;-88
2021/11/06 03:58:39;;;;;;;28.42;12.55;;;5.70;99.90;;;6.62;100.00;101711.41;4983229;28;20018;-85
2021/11/06 04:01:06;;;;;;;22.20;11.50;;;5.70;99.90;;;6.59;100.00;101721.19;4992374;28;20031;-85
2021/11/06 04:03:31;;;;;;;23.33;12.15;;;5.70;99.90;;;6.50;100.00;101720.25;4992069;28;20093;-86
2021/11/06 04:05:57;;;;;;;34.35;13.45;;;5.60;99.90;;;6.53;100.00;101725.19;4990618;28;20035;-85
2021/11/06 04:08:24;;;;;;;21.77;11.10;;;5.60;99.90;;;6.57;100.00;101725.41;4995432;28;20054;-87
2021/11/06 04:10:50;;;;;;;22.83;12.10;;;5.60;99.90;;;6.51;100.00;101723.84;4977335;28;20139;-86
2021/11/06 04:13:16;;;;;;;28.30;11.57;;;5.60;99.90;;;6.55;100.00;101724.91;4975902;28;20044;-85
2021/11/06 04:15:42;;;;;;;27.65;12.05;;;5.60;99.90;;;6.49;100.00;101724.16;4975991;28;20089;-85
2021/11/06 04:18:09;;;;;;;27.05;13.18;;;5.70;99.90;;;6.58;100.00;101716.75;4976453;28;20039;-86
2021/11/06 04:20:36;;;;;;;22.83;12.27;;;5.70;99.90;;;6.56;100.00;101721.81;4978056;28;20403;-84
2021/11/06 04:23:03;;;;;;;24.08;11.73;;;5.70;99.90;;;6.67;100.00;101720.50;4975736;28;20046;-86
2021/11/06 04:25:29;;;;;;;21.63;11.70;;;5.80;99.90;;;6.76;100.00;101718.66;4976771;28;20093;-86
2021/11/06 04:27:56;;;;;;;20.50;11.93;;;5.80;99.90;;;6.78;100.00;101719.16;4976473;28;20041;-87
2021/11/06 04:30:23;;;;;;;23.10;12.70;;;5.90;99.90;;;6.80;100.00;101716.09;4975927;28;20061;-88
2021/11/06 04:32:49;;;;;;;25.17;11.70;;;6.00;99.90;;;6.90;100.00;101713.91;4975992;28;20027;-86
2021/11/06 04:35:16;;;;;;;23.58;11.57;;;6.10;99.90;;;6.97;100.00;101718.28;4978430;28;20066;-86
2021/11/06 04:37:42;;;;;;;23.33;11.85;;;6.10;99.90;;;7.10;100.00;101709.09;4979240;28;20479;-88
2021/11/06 04:40:12;;;;;;;27.23;12.23;;;6.10;99.90;;;7.04;100.00;101724.22;4995825;28;20057;-87
2021/11/06 04:42:41;;;;;;;20.50;11.13;;;6.20;99.90;;;7.12;100.00;101721.56;4996226;28;20061;-84
2021/11/06 04:45:10;;;;;;;32.40;12.27;;;6.20;99.90;;;7.20;100.00;101720.81;4980915;28;20159;-85
2021/11/06 04:47:36;;;;;;;20.98;11.05;;;6.30;99.90;;;7.15;100.00;101723.72;4996022;28;20038;-88
2021/11/06 04:50:08;;;;;;;24.17;10.85;;;6.30;99.90;;;7.23;100.00;101719.38;4981204;28;20023;-86
2021/11/06 04:52:35;;;;;;;24.45;11.50;;;6.40;99.90;;;7.27;100.00;101720.41;4980807;28;20126;-85
2021/11/06 04:55:07;;;;;;;22.17;10.48;;;6.40;99.90;;;7.30;100.00;101726.16;4988104;28;20035;-85
2021/11/06 04:57:33;;;;;;;17.50;9.98;;;6.40;99.90;;;7.34;100.00;101720.81;4989266;28;20023;-84
2021/11/06 04:59:59;;;;;;;29.42;10.43;;;6.40;99.90;;;7.28;100.00;101724.84;4982015;28;20035;-84
2021/11/06 05:02:24;;;;;;;17.52;9.10;;;6.40;99.90;;;7.33;100.00;101724.72;4980323;28;20081;-84
2021/11/06 05:04:51;;;;;;;20.05;10.20;;;6.40;99.90;;;7.42;100.00;101725.63;4980333;28;20022;-87
2021/11/06 05:07:17;;;;;;;21.52;9.95;;;6.40;99.90;;;7.47;100.00;101721.94;4980752;28;20034;-85
2021/11/06 05:09:43;;;;;;;22.30;9.55;;;6.50;99.90;;;7.43;100.00;101716.16;4981960;28;20034;-88
2021/11/06 05:12:12;;;;;;;21.60;10.35;;;6.50;99.90;;;7.44;100.00;101717.81;4981632;28;20122;-87
2021/11/06 05:14:38;;;;;;;17.00;8.65;;;6.50;99.90;;;7.50;100.00;101712.97;4983724;28;20091;-85
2021/11/06 05:17:05;;;;;;;21.13;8.63;;;6.50;99.90;;;7.44;100.00;101715.03;4981351;28;20033;-86
2021/11/06 05:19:31;;;;;;;18.92;9.00;;;6.50;99.90;;;7.46;100.00;101717.50;4978774;28;20050;-84
2021/11/06 05:21:57;;;;;;;16.70;8.45;;;6.50;99.90;;;7.41;100.00;101716.50;4978894;28;20522;-83
2021/11/06 05:24:23;;;;;;;16.90;8.35;;;6.50;99.90;;;7.42;100.00;101712.56;4978676;28;20031;-84
2021/11/06 05:26:49;;;;;;;14.85;7.00;;;6.50;99.90;;;7.46;100.00;101703.59;4979448;28;20364;-86
2021/11/06 05:29:18;;;;;;;13.25;6.90;;;6.50;99.90;;;7.53;100.00;101717.91;4979123;28;20031;-83
2021/11/06 05:31:44;;;;;;;12.50;7.47;;;6.60;99.90;;;7.49;100.00;101709.34;4979556;28;20027;-85
2021/11/06 05:34:10;;;;;;;14.48;6.35;;;6.50;99.90;;;7.50;100.00;101710.19;4981280;28;20066;-83
2021/11/06 05:36:36;;;;;;;13.82;6.50;;;6.50;99.90;;;7.52;100.00;101719.84;4978905;28;20038;-83
2021/11/06 05:39:04;;;;;;;11.68;5.65;;;6.60;99.90;;;7.59;99.78;101716.66;4978992;28;20030;-85
2021/11/06 05:41:30;;;;;;;10.98;5.72;;;6.60;99.90;;;7.66;99.30;101723.44;4978828;28;20045;-85
2021/11/06 05:43:57;;;;;;;11.07;5.57;;;6.60;99.90;;;7.60;99.36;101715.53;4980210;28;20062;-84
2021/11/06 05:46:23;;;;;;;11.73;6.30;;;6.60;99.90;;;7.59;99.34;101720.25;4978167;28;20034;-85
2021/11/06 05:48:49;;;;;;;12.40;5.15;;;6.60;99.90;;;7.59;99.38;101717.47;4979696;28;20030;-89
2021/11/06 05:51:16;;;;;;;11.07;5.45;;;6.60;99.90;;;7.55;99.38;101719.22;4979731;28;20030;-88
2021/11/06 05:53:42;;;;;;;15.00;5.13;;;6.50;99.90;;;7.60;99.44;101718.31;4978184;28;20491;-88
2021/11/06 05:56:08;;;;;;;10.57;5.90;;;6.60;99.90;;;7.59;99.62;101716.66;4977654;28;20034;-86
2021/11/06 05:58:34;;;;;;;10.50;5.28;;;6.50;99.90;;;7.45;99.80;101718.66;4978086;28;20070;-87
2021/11/06 06:01:00;;;;;;;14.43;6.18;;;6.50;99.90;;;7.49;99.68;101720.47;4979701;28;20027;-86
2021/11/06 06:03:26;;;;;;;12.25;6.50;;;6.50;99.90;;;7.35;100.00;101725.25;4978076;28;20078;-85
2021/11/06 06:05:53;;;;;;;16.00;6.82;;;6.60;99.90;;;7.43;100.00;101710.59;4978637;28;20593;-85
2021/11/06 06:08:19;;;;;;;18.98;6.70;;;6.50;99.90;;;7.42;99.97;101714.50;4977088;28;20474;-84
2021/11/06 06:10:45;;;;;;;11.75;5.55;;;6.50;99.90;;;7.40;100.00;101714.00;4979104;28;20122;-86
2021/11/06 06:13:11;;;;;;;12.95;6.40;;;6.50;99.90;;;7.43;99.97;101719.78;4994007;28;20093;-84
2021/11/06 06:15:38;;;;;;;13.52;6.75;;;6.50;99.90;;;7.49;99.99;101723.25;4977513;28;20027;-83
2021/11/06 06:18:04;;;;;;;13.50;6.50;;;6.50;99.90;;;7.42;99.89;101720.91;5010839;28;20027;-86
2021/11/06 06:20:30;;;;;;;12.52;6.75;;;6.50;99.90;;;7.39;100.00;101715.97;4978470;28;20042;-85
2021/11/06 06:22:56;;;;;;;13.52;7.38;;;6.50;99.90;;;7.43;99.53;101728.09;4978169;28;20122;-86
2021/11/06 06:25:24;;;;;;;13.98;6.18;;;6.50;99.90;;;7.41;99.82;101732.34;4977850;28;20054;-86
2021/11/06 06:27:50;;;;;;;16.38;7.60;;;6.50;99.90;;;7.42;99.53;101731.19;4978268;28;20027;-84
2021/11/06 06:30:18;;;;;;;12.02;6.78;;;6.50;99.90;;;7.37;99.73;101737.69;4979723;28;20027;-84
2021/11/06 06:32:46;;;;;;;15.10;7.72;;;6.40;99.90;;;7.32;99.89;101739.78;4978988;28;20114;-85
2021/11/06 06:35:15;;;;;;;15.07;6.97;;;6.40;99.90;;;7.41;99.90;101741.50;4980521;28;20022;-84
2021/11/06 06:37:42;;;;;;;13.85;7.53;;;6.40;99.90;;;7.38;99.64;101746.88;4978128;28;20071;-85
2021/11/06 06:40:11;;;;;;;13.95;7.30;;;6.40;99.90;;;7.34;99.84;101731.94;4979692;28;20031;-85
2021/11/06 06:42:37;;;;;;;14.32;8.02;;;6.50;99.90;;;7.47;99.45;101733.03;4994843;28;20098;-86
2021/11/06 06:45:04;;;;;;;14.68;7.03;;;6.50;99.90;;;7.44;99.26;101734.50;4978716;28;20103;-87
2021/11/06 06:47:30;;;;;;;16.13;7.07;;;6.50;99.90;;;7.55;98.39;101735.06;4979496;28;20078;-86
2021/11/06 06:49:56;;;;;;;13.38;6.43;;;6.60;99.90;;;7.54;98.39;101737.06;4979353;28;20027;-85
2021/11/06 06:52:24;;;;;;;12.15;6.75;;;6.60;99.90;;;7.52;98.48;101738.47;4979487;28;20033;-87
2021/11/06 06:54:50;;;;;;;12.88;7.32;;;6.60;99.90;;;7.57;98.25;101747.56;4979646;28;20077;-86
2021/11/06 06:57:16;;;;;;;12.88;6.72;;;6.60;99.90;;;7.62;98.40;101739.09;4994767;28;20113;-88
2021/11/06 06:59:42;;;;;;;14.45;6.88;;;6.70;99.90;;;7.66;98.29;101740.13;4980991;28;20031;-85
2021/11/06 07:02:09;;;;;;;14.80;5.97;;;6.70;99.90;;;7.58;98.57;101740.03;4993740;28;20054;-86
2021/11/06 07:04:35;;;;;;;16.08;6.60;;;6.80;99.90;;;7.70;98.51;101734.75;4995015;28;20106;-82
2021/11/06 07:07:01;;;;;;;14.88;5.95;;;6.80;99.90;;;7.71;98.05;101734.44;4982825;28;20035;-85
2021/11/06 07:09:28;;;;;;;10.63;6.43;;;6.90;99.90;;;7.78;97.26;101739.56;4992027;28;20027;-85
2021/11/06 07:11:54;;;;;;;11.82;6.43;;;6.90;99.90;;;7.78;97.15;101734.00;4995474;28;20061;-82
2021/11/06 07:14:21;;;;;;;14.57;6.88;;;6.90;99.90;;;7.82;97.37;101740.59;4994396;28;20054;-84
2021/11/06 07:16:49;;;;;;;12.65;7.10;;;6.90;99.90;;;7.81;97.29;101742.53;4981028;28;20031;-84
2021/11/06 07:19:16;;;;;;;12.07;6.85;;;6.90;99.90;;;7.89;97.17;101750.16;4981576;28;20122;-87
2021/11/06 07:21:42;;;;;;;13.55;6.60;;;6.90;99.90;;;8.02;96.62;101754.03;4982333;28;20034;-86
2021/11/06 07:24:08;;;;;;;14.27;7.63;;;7.00;99.90;;;7.99;96.28;101753.84;4982643;28;20034;-87
2021/11/06 07:26:34;;;;;;;15.60;7.20;;;7.10;99.90;;;8.04;96.17;101754.53;4988496;28;20090;-82
2021/11/06 07:29:00;;;;;;;17.30;7.25;;;7.10;99.90;;;8.08;95.35;101750.00;4996415;28;20063;-82
2021/11/06 07:31:27;;;;;;;12.60;6.57;;;7.20;99.90;;;8.21;95.50;101753.84;4996748;28;20027;-80
2021/11/06 07:33:54;;;;;;;13.82;7.50;;;7.30;99.90;;;8.27;95.05;101760.94;4995957;28;20051;-80
2021/11/06 07:36:24;;;;;;;15.05;7.05;;;7.30;99.90;;;8.40;94.49;101754.53;4981921;28;20494;-84
2021/11/06 07:38:52;;;;;;;11.85;6.97;;;7.30;99.90;;;8.43;94.36;101751.94;4977741;28;20031;-83
2021/11/06 07:41:19;;;;;;;14.65;7.20;;;7.40;99.90;;;8.46;94.06;101759.66;4977831;28;20027;-86
2021/11/06 07:43:45;;;;;;;16.25;7.68;;;7.50;99.90;;;8.53;93.82;101759.19;4979302;28;20057;-86
2021/11/06 07:46:11;;;;;;;13.95;7.03;;;7.50;99.90;;;8.69;93.52;101773.56;4979258;28;20030;-86
2021/11/06 07:48:37;;;;;;;15.35;7.40;;;7.60;99.90;;;8.77;93.92;101775.56;4977765;28;20031;-88
2021/11/06 07:51:04;;;;;;;16.25;7.78;;;7.70;99.90;;;8.78;93.47;101766.88;4977951;28;20038;-87
2021/11/06 07:53:30;;;;;;;14.52;7.75;;;7.70;99.90;;;8.83;93.28;101765.94;4980390;28;20116;-86
2021/11/06 07:55:56;;;;;;;13.13;6.45;;;7.80;99.90;;;8.89;92.56;101781.38;4994051;28;20041;-86
2021/11/06 07:58:23;;;;;;;18.08;7.75;;;7.80;99.90;;;8.87;93.04;101770.53;4978595;28;20058;-85
2021/11/06 08:00:49;;;;;;;12.38;6.57;;;7.80;99.90;;;8.84;92.91;101773.13;4980731;28;20058;-89
2021/11/06 08:03:15;;;;;;;15.68;7.32;;;7.80;99.90;;;8.85;93.34;101767.25;4980900;28;20034;-85
2021/11/06 08:05:45;;;;;;;16.25;7.30;;;7.80;99.90;;;8.82;92.69;101759.53;4981609;28;20091;-87
2021/11/06 08:08:11;;;;;;;14.07;6.57;;;7.80;99.90;;;8.84;91.90;101759.22;4982884;28;20095;-87
2021/11/06 08:10:37;;;;;;;13.70;6.85;;;7.90;99.90;;;8.74;92.20;101756.69;4980377;28;20088;-83
2021/11/06 08:13:04;;;;;;;12.70;6.55;;;7.90;99.90;;;9.00;90.63;101757.66;4997563;28;20035;-87
2021/11/06 08:15:31;;;;;;;12.77;6.40;;;8.00;99.90;;;8.95;91.58;101758.63;4981982;28;20099;-85
2021/11/06 08:17:58;;;;;;;12.07;6.68;;;8.00;99.90;;;9.08;91.83;101756.06;4997326;28;20031;-84
2021/11/06 08:20:25;;;;;;;11.75;6.32;;;8.10;99.90;;;9.12;90.41;101754.28;4980593;28;20050;-86
2021/11/06 08:22:52;;;;;;;14.52;6.57;;;8.10;99.90;;;9.29;90.51;101757.13;4980892;28;20470;-87
2021/11/06 08:25:23;;;;;;;12.38;6.05;;;8.20;99.90;;;9.28;90.17;101763.84;4996497;28;20041;-85
2021/11/06 08:27:54;;;;;;;10.20;6.22;;;8.30;99.90;;;9.36;88.48;101763.88;4981326;28;20462;-85
2021/11/06 08:30:25;;;;;;;11.63;6.40;;;8.40;99.90;;;9.47;87.95;101758.81;4982362;28;20394;-85
2021/11/06 08:32:55;;;;;;;15.45;6.30;;;8.50;99.90;;;9.48;88.26;101754.88;4979797;28;20038;-86
2021/11/06 08:35:25;;;;;;;14.13;5.93;;;8.50;99.90;;;9.58;88.42;101748.16;4981221;28;20031;-85
2021/11/06 08:37:52;;;;;;;14.18;5.85;;;8.60;99.90;;;9.60;88.45;101741.13;4981103;28;20414;-86
2021/11/06 08:40:18;;;;;;;11.00;5.78;;;8.70;99.90;;;9.72;87.35;101743.28;4982405;28;20472;-85
2021/11/06 08:42:44;;;;;;;10.07;5.60;;;8.70;99.90;;;9.73;86.95;101739.34;4983427;28;20030;-87
2021/11/06 08:45:15;;;;;;;9.88;5.30;;;8.70;99.90;;;9.73;85.80;101753.31;4981542;28;20030;-86
2021/11/06 08:47:42;;;;;;;12.15;5.95;;;8.70;99.90;;;9.60;86.48;101738.31;4981271;28;20033;-85
2021/11/06 08:50:15;;;;;;;12.52;5.10;;;8.60;99.90;;;9.53;87.54;101741.59;4996913;28;20030;-87
2021/11/06 08:52:42;;;;;;;9.27;5.65;;;8.60;99.90;;;9.57;86.89;101743.75;4980723;28;20077;-86
2021/11/06 08:55:09;;;;;;;10.80;5.50;;;8.60;99.90;;;9.70;87.91;101748.34;4981048;28;20894;-85
2021/11/06 08:57:39;;;;;;;10.55;5.57;;;8.70;99.90;;;9.75;86.61;101753.78;4981336;28;20474;-88
2021/11/06 09:00:26;;;;;;;13.40;5.35;;;8.70;99.90;;;10.02;86.51;101747.88;4982202;28;20498;-87
2021/11/06 09:02:54;;;;;;;8.02;4.85;;;8.90;99.90;;;10.00;85.79;101737.06;4982965;28;20030;-86
2021/11/06 09:05:21;;;;;;;12.18;5.60;;;9.00;99.90;;;10.25;85.04;101731.81;4982648;28;20043;-84
2021/11/06 09:07:48;;;;;;;11.65;5.28;;;9.20;99.90;;;10.43;84.10;101741.84;4998987;28;20027;-85
2021/11/06 09:10:20;;;;;;;11.57;5.50;;;9.30;99.90;;;10.75;82.81;101735.69;5002608;28;20054;-84
2021/11/06 09:12:48;;;;;;;9.20;5.22;;;9.60;99.90;;;10.76;82.04;101737.31;4999739;28;20023;-84
2021/11/06 09:15:15;;;;;;;10.60;5.72;;;9.60;99.90;;;10.59;82.02;101732.59;4984507;28;20026;-84
2021/11/06 09:17:41;;;;;;;11.73;5.45;;;9.60;99.90;;;10.53;82.32;101739.50;4979613;28;20089;-84
2021/11/06 09:20:09;;;;;;;10.35;5.38;;;9.50;99.90;;;10.23;83.45;101739.72;4997048;28;20472;-86
2021/11/06 09:22:39;;;;;;;12.18;5.28;;;9.30;99.90;;;10.20;84.28;101734.81;4997400;28;20031;-87
2021/11/06 09:25:08;;;;;;;8.82;4.93;;;9.20;99.90;;;10.08;84.97;101743.81;4978782;28;20027;-85
2021/11/06 09:27:35;;;;;;;8.55;5.22;;;9.10;99.90;;;10.11;84.83;101751.53;4996588;28;20034;-84
2021/11/06 09:30:09;;;;;;;8.80;4.75;;;9.10;99.90;;;10.06;84.91;101743.31;4996621;28;20027;-85
2021/11/06 09:32:38;;;;;;;7.32;5.10;;;9.10;99.90;;;10.10;85.73;101747.09;4995740;28;20117;-84
2021/11/06 09:35:05;;;;;;;14.95;5.45;;;9.10;99.90;;;10.13;86.44;101748.41;4994533;28;20031;-87
2021/11/06 09:37:31;;;;;;;9.32;5.70;;;9.10;99.90;;;10.11;86.03;101748.75;4979924;28;20058;-87
2021/11/06 09:39:58;;;;;;;11.20;5.60;;;9.10;99.90;;;9.94;86.88;101748.72;4979731;28;20035;-85
2021/11/06 09:42:25;;;;;;;10.77;5.53;;;9.10;99.90;;;10.22;85.94;101738.91;4980478;28;20019;-86
2021/11/06 09:44:52;;;;;;;8.40;5.63;;;9.20;99.90;;;10.31;85.12;101744.47;4980062;28;20038;-85
2021/11/06 09:47:20;;;;;;;8.93;4.80;;;9.20;99.90;;;10.29;84.65;101741.19;4980804;28;20027;-86
2021/11/06 09:49:48;;;;;;;9.93;5.28;;;9.30;99.90;;;10.12;86.26;101743.94;4980332;28;20042;-86
2021/11/06 09:52:15;;;;;;;11.38;5.18;;;9.30;99.90;;;10.39;85.89;101741.69;4979577;28;20077;-84
2021/11/06 09:54:43;;;;;;;7.47;4.93;;;9.40;99.90;;;10.57;85.26;101739.66;4996327;28;20038;-83
2021/11/06 09:57:09;;;;;;;9.55;4.95;;;9.50;99.90;;;10.72;85.17;101746.72;4980712;28;20030;-84
2021/11/06 09:59:35;;;;;;;8.65;5.07;;;9.60;99.90;;;10.74;84.12;101750.00;4996861;28;20042;-85
2021/11/06 10:02:06;;;;;;;9.70;4.93;;;9.60;99.90;;;10.83;83.82;101750.78;4980784;28;20514;-84
2021/11/06 10:04:32;;;;;;;15.43;5.57;;;9.70;99.90;;;10.89;83.73;101747.47;4980533;28;20376;-85
2021/11/06 10:07:25;;;;;;;7.15;4.75;;;9.70;99.90;;;10.91;83.80;101753.56;4980647;28;20031;-85
2021/11/06 10:10:17;;;;;;;8.85;5.40;;;9.80;99.90;;;10.86;83.61;101738.94;4996845;28;20022;-84
2021/11/06 10:12:51;;;;;;;8.30;5.15;;;9.80;99.90;;;10.94;82.81;101736.13;4982458;28;20045;-85